Honaunau, HI (96726)

3:37 AM HST on July 29, 2016 (GMT -1000)
| | Change Station

Elev -9999 ft 0.00 °N, 0.00 °E | Updated

Partly Cloudy
Partly Cloudy
74 °F
Feels Like 74 °F
N
5
Wind Variable Wind from ESE
Gusts mph

Today
High -- | Low -- °F
--% Chance of Precip.
Yesterday
High -- | Low -- °F
Precip. -- in
Pressure 29.93 in
Visibility 10.0 miles
Clouds Few 5500 ft
Dew Point 67 °F
Humidity 78%
Rainfall --
Snow Depth Not available.
5:59 AM 7:00 PM
Waning Crescent, 22% visible
METAR PHKO 291253Z AUTO 24004KT 10SM FEW055 27/19 A2993 RMK AO2 SLP134 T02670194 TSNO
Pressure 29.93 in
Visibility 10.0 miles
Clouds Few 5500 ft
Dew Point 67 °F
Humidity 78%
Rainfall --
Snow Depth Not available.
5:59 AM 7:00 PM
Waning Crescent, 22% visible
METAR PHKO 291253Z AUTO 24004KT 10SM FEW055 27/19 A2993 RMK AO2 SLP134 T02670194 TSNO

10-Day Weather Forecast

Almanac

Astronomy

Jul. 29, 2016 Rise Set
Actual Time
Civil Twilight
Nautical Twilight
Astronomical Twilight
Moon
Length of Visible Light
Length of Day
Tomorrow will be .
, % of the Moon is Illuminated

Today's Extremes

State Highs State Lows

Community

WunderPhotos

Upload Photos

1,928,340 photos uploaded!

WunderBlog® & News

Nearby

Air Quality

  Air Quality AQ Index Pollutant
Not available.

Snow Depth

Station Depth Elevation

Earthquake Activity

City Distance Mag. Time & Date
Minimum magnitude displayed is 2.5.

Coastal Water Temperatures

Place Temperature

Stations

Nearby Weather Stations

Station Location Temp. Windchill Dew Point Humidity Wind Precip. Elev Updated Type
                   

Watches & Warnings

There are currently no watches in effect.